sensor_id;sensor_type;location;lat;lon;timestamp;P1;durP1;ratioP1;P2;durP2;ratioP2
18510;SDS011;9384;48.044;11.616;2022-10-16T00:01:05;1.10;;;1.10;;
18510;SDS011;9384;48.044;11.616;2022-10-16T00:03:33;1.37;;;1.37;;
18510;SDS011;9384;48.044;11.616;2022-10-16T00:06:00;1.27;;;1.00;;
18510;SDS011;9384;48.044;11.616;2022-10-16T00:08:28;1.43;;;1.00;;
18510;SDS011;9384;48.044;11.616;2022-10-16T00:10:58;3.20;;;1.00;;
18510;SDS011;9384;48.044;11.616;2022-10-16T00:13:27;1.57;;;0.73;;
18510;SDS011;9384;48.044;11.616;2022-10-16T00:18:23;1.20;;;1.20;;
18510;SDS011;9384;48.044;11.616;2022-10-16T00:20:51;4.57;;;1.67;;
18510;SDS011;9384;48.044;11.616;2022-10-16T00:23:18;1.70;;;1.60;;
18510;SDS011;9384;48.044;11.616;2022-10-16T00:25:45;2.10;;;2.03;;
18510;SDS011;9384;48.044;11.616;2022-10-16T00:28:20;2.00;;;1.80;;
18510;SDS011;9384;48.044;11.616;2022-10-16T00:30:48;2.50;;;2.40;;
18510;SDS011;9384;48.044;11.616;2022-10-16T00:33:15;2.97;;;2.07;;
18510;SDS011;9384;48.044;11.616;2022-10-16T00:35:42;1.83;;;1.73;;
18510;SDS011;9384;48.044;11.616;2022-10-16T00:38:09;3.37;;;1.83;;
18510;SDS011;9384;48.044;11.616;2022-10-16T00:40:36;6.87;;;1.80;;
18510;SDS011;9384;48.044;11.616;2022-10-16T00:43:04;1.53;;;1.53;;
18510;SDS011;9384;48.044;11.616;2022-10-16T00:45:35;2.67;;;1.60;;
18510;SDS011;9384;48.044;11.616;2022-10-16T00:48:03;1.63;;;1.60;;
18510;SDS011;9384;48.044;11.616;2022-10-16T00:50:31;2.53;;;1.97;;
18510;SDS011;9384;48.044;11.616;2022-10-16T00:53:00;1.60;;;1.60;;
18510;SDS011;9384;48.044;11.616;2022-10-16T00:55:28;2.87;;;1.50;;
18510;SDS011;9384;48.044;11.616;2022-10-16T00:57:55;2.90;;;1.47;;
18510;SDS011;9384;48.044;11.616;2022-10-16T01:00:24;1.40;;;1.30;;
18510;SDS011;9384;48.044;11.616;2022-10-16T01:02:53;4.40;;;1.60;;
18510;SDS011;9384;48.044;11.616;2022-10-16T01:05:22;1.57;;;1.50;;
18510;SDS011;9384;48.044;11.616;2022-10-16T01:07:54;6.40;;;1.30;;
18510;SDS011;9384;48.044;11.616;2022-10-16T01:10:26;1.30;;;1.30;;
18510;SDS011;9384;48.044;11.616;2022-10-16T01:12:59;1.37;;;0.97;;
18510;SDS011;9384;48.044;11.616;2022-10-16T01:15:31;1.47;;;1.37;;
18510;SDS011;9384;48.044;11.616;2022-10-16T01:18:04;1.00;;;1.00;;
18510;SDS011;9384;48.044;11.616;2022-10-16T01:20:37;4.60;;;1.40;;
18510;SDS011;9384;48.044;11.616;2022-10-16T01:23:14;3.90;;;1.37;;
18510;SDS011;9384;48.044;11.616;2022-10-16T01:26:00;2.70;;;1.50;;
18510;SDS011;9384;48.044;11.616;2022-10-16T01:28:41;9.00;;;1.80;;
18510;SDS011;9384;48.044;11.616;2022-10-16T01:31:12;2.67;;;1.50;;
18510;SDS011;9384;48.044;11.616;2022-10-16T01:33:43;1.40;;;1.40;;
18510;SDS011;9384;48.044;11.616;2022-10-16T01:36:14;2.20;;;2.00;;
18510;SDS011;9384;48.044;11.616;2022-10-16T01:38:44;1.60;;;1.50;;
18510;SDS011;9384;48.044;11.616;2022-10-16T01:41:16;1.97;;;1.87;;
18510;SDS011;9384;48.044;11.616;2022-10-16T01:43:49;6.33;;;1.57;;
18510;SDS011;9384;48.044;11.616;2022-10-16T01:46:19;2.93;;;1.43;;
18510;SDS011;9384;48.044;11.616;2022-10-16T01:48:48;1.10;;;1.10;;
18510;SDS011;9384;48.044;11.616;2022-10-16T01:51:17;1.20;;;1.20;;
18510;SDS011;9384;48.044;11.616;2022-10-16T01:53:47;1.73;;;1.63;;
18510;SDS011;9384;48.044;11.616;2022-10-16T01:56:18;1.30;;;1.30;;
18510;SDS011;9384;48.044;11.616;2022-10-16T01:58:49;6.30;;;2.77;;
18510;SDS011;9384;48.044;11.616;2022-10-16T02:01:20;1.87;;;1.30;;
18510;SDS011;9384;48.044;11.616;2022-10-16T02:03:49;0.90;;;0.90;;
18510;SDS011;9384;48.044;11.616;2022-10-16T02:06:21;1.50;;;1.50;;
18510;SDS011;9384;48.044;11.616;2022-10-16T02:08:48;3.03;;;1.93;;
18510;SDS011;9384;48.044;11.616;2022-10-16T02:11:15;1.87;;;1.60;;
18510;SDS011;9384;48.044;11.616;2022-10-16T02:13:43;1.80;;;1.33;;
18510;SDS011;9384;48.044;11.616;2022-10-16T02:16:15;1.30;;;1.30;;
18510;SDS011;9384;48.044;11.616;2022-10-16T02:18:42;1.30;;;1.20;;
18510;SDS011;9384;48.044;11.616;2022-10-16T02:21:11;1.93;;;1.87;;
18510;SDS011;9384;48.044;11.616;2022-10-16T02:23:45;1.07;;;1.07;;
18510;SDS011;9384;48.044;11.616;2022-10-16T02:26:17;1.33;;;1.20;;
18510;SDS011;9384;48.044;11.616;2022-10-16T02:28:54;1.50;;;1.40;;
18510;SDS011;9384;48.044;11.616;2022-10-16T02:31:27;1.37;;;1.37;;
18510;SDS011;9384;48.044;11.616;2022-10-16T02:34:00;3.70;;;1.77;;
18510;SDS011;9384;48.044;11.616;2022-10-16T02:36:30;2.87;;;1.40;;
18510;SDS011;9384;48.044;11.616;2022-10-16T02:38:58;1.67;;;1.37;;
18510;SDS011;9384;48.044;11.616;2022-10-16T02:41:26;1.33;;;1.13;;
18510;SDS011;9384;48.044;11.616;2022-10-16T02:43:53;1.20;;;1.20;;
18510;SDS011;9384;48.044;11.616;2022-10-16T02:46:20;2.17;;;1.30;;
18510;SDS011;9384;48.044;11.616;2022-10-16T02:48:49;4.83;;;1.10;;
18510;SDS011;9384;48.044;11.616;2022-10-16T02:51:16;1.37;;;1.30;;
18510;SDS011;9384;48.044;11.616;2022-10-16T02:53:43;1.20;;;1.20;;
18510;SDS011;9384;48.044;11.616;2022-10-16T02:56:09;1.67;;;1.33;;
18510;SDS011;9384;48.044;11.616;2022-10-16T02:58:36;2.00;;;1.43;;
18510;SDS011;9384;48.044;11.616;2022-10-16T03:01:03;4.73;;;1.43;;
18510;SDS011;9384;48.044;11.616;2022-10-16T03:03:30;4.90;;;1.20;;
18510;SDS011;9384;48.044;11.616;2022-10-16T03:05:58;2.20;;;1.50;;
18510;SDS011;9384;48.044;11.616;2022-10-16T03:08:25;2.63;;;0.93;;
18510;SDS011;9384;48.044;11.616;2022-10-16T03:10:52;1.50;;;1.20;;
18510;SDS011;9384;48.044;11.616;2022-10-16T03:13:19;1.23;;;1.20;;
18510;SDS011;9384;48.044;11.616;2022-10-16T03:15:46;2.73;;;1.17;;
18510;SDS011;9384;48.044;11.616;2022-10-16T03:18:13;1.30;;;1.20;;
18510;SDS011;9384;48.044;11.616;2022-10-16T03:20:40;1.93;;;1.33;;
18510;SDS011;9384;48.044;11.616;2022-10-16T03:23:09;1.20;;;1.20;;
18510;SDS011;9384;48.044;11.616;2022-10-16T03:25:36;2.23;;;1.63;;
18510;SDS011;9384;48.044;11.616;2022-10-16T03:28:03;1.30;;;1.30;;
18510;SDS011;9384;48.044;11.616;2022-10-16T03:30:30;1.10;;;1.10;;
18510;SDS011;9384;48.044;11.616;2022-10-16T03:32:57;1.60;;;1.50;;
18510;SDS011;9384;48.044;11.616;2022-10-16T03:35:24;1.40;;;1.40;;
18510;SDS011;9384;48.044;11.616;2022-10-16T03:37:51;2.00;;;1.30;;
18510;SDS011;9384;48.044;11.616;2022-10-16T03:40:19;5.40;;;1.60;;
18510;SDS011;9384;48.044;11.616;2022-10-16T03:42:46;1.63;;;1.30;;
18510;SDS011;9384;48.044;11.616;2022-10-16T03:45:13;1.40;;;1.40;;
18510;SDS011;9384;48.044;11.616;2022-10-16T03:47:40;1.37;;;1.37;;
18510;SDS011;9384;48.044;11.616;2022-10-16T03:50:07;1.50;;;1.40;;
18510;SDS011;9384;48.044;11.616;2022-10-16T03:52:34;1.70;;;1.60;;
18510;SDS011;9384;48.044;11.616;2022-10-16T03:55:01;1.50;;;1.40;;
18510;SDS011;9384;48.044;11.616;2022-10-16T03:57:30;5.40;;;1.70;;
18510;SDS011;9384;48.044;11.616;2022-10-16T03:59:56;1.43;;;1.40;;
18510;SDS011;9384;48.044;11.616;2022-10-16T04:02:23;1.53;;;1.53;;
18510;SDS011;9384;48.044;11.616;2022-10-16T04:04:50;1.20;;;1.10;;
18510;SDS011;9384;48.044;11.616;2022-10-16T04:07:17;1.57;;;1.47;;
18510;SDS011;9384;48.044;11.616;2022-10-16T04:09:44;1.27;;;1.27;;
18510;SDS011;9384;48.044;11.616;2022-10-16T04:12:11;1.37;;;1.37;;
18510;SDS011;9384;48.044;11.616;2022-10-16T04:14:39;1.80;;;1.70;;
18510;SDS011;9384;48.044;11.616;2022-10-16T04:17:06;1.47;;;1.47;;
18510;SDS011;9384;48.044;11.616;2022-10-16T04:19:33;1.50;;;1.40;;
18510;SDS011;9384;48.044;11.616;2022-10-16T04:22:00;2.10;;;1.30;;
18510;SDS011;9384;48.044;11.616;2022-10-16T04:24:26;1.97;;;1.87;;
18510;SDS011;9384;48.044;11.616;2022-10-16T04:26:53;1.67;;;1.57;;
18510;SDS011;9384;48.044;11.616;2022-10-16T04:29:20;1.37;;;1.37;;
18510;SDS011;9384;48.044;11.616;2022-10-16T04:31:48;1.30;;;1.30;;
18510;SDS011;9384;48.044;11.616;2022-10-16T04:34:15;2.10;;;2.03;;
18510;SDS011;9384;48.044;11.616;2022-10-16T04:36:42;2.10;;;1.83;;
18510;SDS011;9384;48.044;11.616;2022-10-16T04:39:09;6.13;;;1.57;;
18510;SDS011;9384;48.044;11.616;2022-10-16T04:41:36;2.40;;;1.70;;
18510;SDS011;9384;48.044;11.616;2022-10-16T04:44:02;1.97;;;1.60;;
18510;SDS011;9384;48.044;11.616;2022-10-16T04:46:29;2.30;;;2.20;;
18510;SDS011;9384;48.044;11.616;2022-10-16T04:48:58;1.70;;;1.60;;
18510;SDS011;9384;48.044;11.616;2022-10-16T04:51:25;2.77;;;1.60;;
18510;SDS011;9384;48.044;11.616;2022-10-16T04:53:52;3.50;;;1.87;;
18510;SDS011;9384;48.044;11.616;2022-10-16T04:56:19;1.43;;;1.43;;
18510;SDS011;9384;48.044;11.616;2022-10-16T04:58:46;4.13;;;1.50;;
18510;SDS011;9384;48.044;11.616;2022-10-16T05:01:13;2.70;;;1.40;;
18510;SDS011;9384;48.044;11.616;2022-10-16T05:03:40;4.40;;;1.50;;
18510;SDS011;9384;48.044;11.616;2022-10-16T05:06:08;1.40;;;1.30;;
18510;SDS011;9384;48.044;11.616;2022-10-16T05:08:35;1.60;;;1.50;;
18510;SDS011;9384;48.044;11.616;2022-10-16T05:11:02;2.40;;;1.20;;
18510;SDS011;9384;48.044;11.616;2022-10-16T05:13:29;1.40;;;1.33;;
18510;SDS011;9384;48.044;11.616;2022-10-16T05:15:56;2.93;;;1.50;;
18510;SDS011;9384;48.044;11.616;2022-10-16T05:18:23;1.30;;;1.20;;
18510;SDS011;9384;48.044;11.616;2022-10-16T05:20:50;1.30;;;1.30;;
18510;SDS011;9384;48.044;11.616;2022-10-16T05:23:18;2.00;;;1.90;;
18510;SDS011;9384;48.044;11.616;2022-10-16T05:25:51;1.60;;;1.50;;
18510;SDS011;9384;48.044;11.616;2022-10-16T05:28:19;4.33;;;1.53;;
18510;SDS011;9384;48.044;11.616;2022-10-16T05:30:46;2.27;;;1.30;;
18510;SDS011;9384;48.044;11.616;2022-10-16T05:33:13;2.00;;;1.37;;
18510;SDS011;9384;48.044;11.616;2022-10-16T05:35:40;1.50;;;1.50;;
18510;SDS011;9384;48.044;11.616;2022-10-16T05:38:07;2.77;;;1.70;;
18510;SDS011;9384;48.044;11.616;2022-10-16T05:40:35;2.63;;;1.93;;
18510;SDS011;9384;48.044;11.616;2022-10-16T05:43:02;1.70;;;1.70;;
18510;SDS011;9384;48.044;11.616;2022-10-16T05:45:29;2.87;;;1.73;;
18510;SDS011;9384;48.044;11.616;2022-10-16T05:47:56;1.43;;;1.43;;
18510;SDS011;9384;48.044;11.616;2022-10-16T05:50:23;3.30;;;1.70;;
18510;SDS011;9384;48.044;11.616;2022-10-16T05:52:50;3.67;;;2.20;;
18510;SDS011;9384;48.044;11.616;2022-10-16T05:55:17;1.70;;;1.53;;
18510;SDS011;9384;48.044;11.616;2022-10-16T05:57:45;4.33;;;2.00;;
18510;SDS011;9384;48.044;11.616;2022-10-16T06:00:12;1.77;;;1.73;;
18510;SDS011;9384;48.044;11.616;2022-10-16T06:02:39;1.90;;;1.80;;
18510;SDS011;9384;48.044;11.616;2022-10-16T06:05:06;1.50;;;1.50;;
18510;SDS011;9384;48.044;11.616;2022-10-16T06:07:33;1.90;;;1.30;;
18510;SDS011;9384;48.044;11.616;2022-10-16T06:10:02;2.00;;;1.60;;
18510;SDS011;9384;48.044;11.616;2022-10-16T06:12:29;1.93;;;1.63;;
18510;SDS011;9384;48.044;11.616;2022-10-16T06:14:57;2.30;;;1.90;;
18510;SDS011;9384;48.044;11.616;2022-10-16T06:17:24;1.60;;;1.60;;
18510;SDS011;9384;48.044;11.616;2022-10-16T06:19:51;1.60;;;1.50;;
18510;SDS011;9384;48.044;11.616;2022-10-16T06:22:18;4.03;;;2.17;;
18510;SDS011;9384;48.044;11.616;2022-10-16T06:24:45;2.90;;;2.10;;
18510;SDS011;9384;48.044;11.616;2022-10-16T06:27:12;1.93;;;1.83;;
18510;SDS011;9384;48.044;11.616;2022-10-16T06:29:39;4.97;;;2.10;;
18510;SDS011;9384;48.044;11.616;2022-10-16T06:32:09;5.90;;;1.97;;
18510;SDS011;9384;48.044;11.616;2022-10-16T06:34:36;2.60;;;2.40;;
18510;SDS011;9384;48.044;11.616;2022-10-16T06:37:05;2.53;;;2.33;;
18510;SDS011;9384;48.044;11.616;2022-10-16T06:39:31;2.40;;;2.13;;
18510;SDS011;9384;48.044;11.616;2022-10-16T06:41:58;3.17;;;1.97;;
18510;SDS011;9384;48.044;11.616;2022-10-16T06:44:25;3.40;;;1.87;;
18510;SDS011;9384;48.044;11.616;2022-10-16T06:46:52;2.10;;;2.00;;
18510;SDS011;9384;48.044;11.616;2022-10-16T06:49:20;1.90;;;1.80;;
18510;SDS011;9384;48.044;11.616;2022-10-16T06:51:48;2.10;;;1.90;;
18510;SDS011;9384;48.044;11.616;2022-10-16T06:54:15;2.40;;;2.20;;
18510;SDS011;9384;48.044;11.616;2022-10-16T06:56:42;2.10;;;1.90;;
18510;SDS011;9384;48.044;11.616;2022-10-16T06:59:09;2.07;;;1.90;;
18510;SDS011;9384;48.044;11.616;2022-10-16T07:01:36;2.10;;;2.10;;
18510;SDS011;9384;48.044;11.616;2022-10-16T07:04:03;2.20;;;1.80;;
18510;SDS011;9384;48.044;11.616;2022-10-16T07:06:32;2.70;;;1.80;;
18510;SDS011;9384;48.044;11.616;2022-10-16T07:09:01;6.07;;;1.93;;
18510;SDS011;9384;48.044;11.616;2022-10-16T07:11:35;6.00;;;2.07;;
18510;SDS011;9384;48.044;11.616;2022-10-16T07:14:03;2.03;;;1.90;;
18510;SDS011;9384;48.044;11.616;2022-10-16T07:16:31;1.53;;;1.53;;
18510;SDS011;9384;48.044;11.616;2022-10-16T07:18:59;1.60;;;1.60;;
18510;SDS011;9384;48.044;11.616;2022-10-16T07:21:28;2.30;;;2.10;;
18510;SDS011;9384;48.044;11.616;2022-10-16T07:23:59;2.27;;;1.93;;
18510;SDS011;9384;48.044;11.616;2022-10-16T07:26:27;2.10;;;2.00;;
18510;SDS011;9384;48.044;11.616;2022-10-16T07:28:56;1.93;;;1.80;;
18510;SDS011;9384;48.044;11.616;2022-10-16T07:31:23;3.13;;;2.53;;
18510;SDS011;9384;48.044;11.616;2022-10-16T07:33:50;1.70;;;1.70;;
18510;SDS011;9384;48.044;11.616;2022-10-16T07:36:19;5.10;;;2.00;;
18510;SDS011;9384;48.044;11.616;2022-10-16T07:38:46;4.20;;;2.60;;
18510;SDS011;9384;48.044;11.616;2022-10-16T07:41:16;6.27;;;2.50;;
18510;SDS011;9384;48.044;11.616;2022-10-16T07:43:45;2.07;;;1.97;;
18510;SDS011;9384;48.044;11.616;2022-10-16T07:46:12;4.00;;;1.87;;
18510;SDS011;9384;48.044;11.616;2022-10-16T07:48:39;5.90;;;2.00;;
18510;SDS011;9384;48.044;11.616;2022-10-16T07:51:10;3.57;;;1.87;;
18510;SDS011;9384;48.044;11.616;2022-10-16T07:53:38;1.70;;;1.60;;
18510;SDS011;9384;48.044;11.616;2022-10-16T07:56:05;2.13;;;1.73;;
18510;SDS011;9384;48.044;11.616;2022-10-16T07:58:34;1.60;;;1.60;;
18510;SDS011;9384;48.044;11.616;2022-10-16T08:01:02;2.85;;;1.73;;
18510;SDS011;9384;48.044;11.616;2022-10-16T08:03:30;1.90;;;1.80;;
18510;SDS011;9384;48.044;11.616;2022-10-16T08:05:57;3.77;;;1.77;;
18510;SDS011;9384;48.044;11.616;2022-10-16T08:08:25;2.65;;;1.90;;
18510;SDS011;9384;48.044;11.616;2022-10-16T08:10:52;1.83;;;1.73;;
18510;SDS011;9384;48.044;11.616;2022-10-16T08:13:19;2.00;;;1.90;;
18510;SDS011;9384;48.044;11.616;2022-10-16T08:15:47;3.23;;;1.57;;
18510;SDS011;9384;48.044;11.616;2022-10-16T08:18:15;3.40;;;1.90;;
18510;SDS011;9384;48.044;11.616;2022-10-16T08:20:42;1.60;;;1.60;;
18510;SDS011;9384;48.044;11.616;2022-10-16T08:23:09;2.27;;;1.37;;
18510;SDS011;9384;48.044;11.616;2022-10-16T08:25:38;1.77;;;1.70;;
18510;SDS011;9384;48.044;11.616;2022-10-16T08:28:05;1.60;;;1.60;;
18510;SDS011;9384;48.044;11.616;2022-10-16T08:30:34;2.17;;;1.63;;
18510;SDS011;9384;48.044;11.616;2022-10-16T08:33:02;1.80;;;1.70;;
18510;SDS011;9384;48.044;11.616;2022-10-16T08:35:29;1.63;;;1.50;;
18510;SDS011;9384;48.044;11.616;2022-10-16T08:37:56;1.33;;;1.27;;
18510;SDS011;9384;48.044;11.616;2022-10-16T08:40:24;3.70;;;1.47;;
18510;SDS011;9384;48.044;11.616;2022-10-16T08:42:57;1.63;;;1.63;;
18510;SDS011;9384;48.044;11.616;2022-10-16T08:45:49;2.03;;;1.87;;
18510;SDS011;9384;48.044;11.616;2022-10-16T08:48:35;1.77;;;1.67;;
18510;SDS011;9384;48.044;11.616;2022-10-16T08:51:09;1.40;;;1.40;;
18510;SDS011;9384;48.044;11.616;2022-10-16T08:53:43;1.70;;;1.53;;
18510;SDS011;9384;48.044;11.616;2022-10-16T08:56:15;2.17;;;1.70;;
18510;SDS011;9384;48.044;11.616;2022-10-16T08:58:43;3.43;;;1.50;;
18510;SDS011;9384;48.044;11.616;2022-10-16T09:01:12;1.33;;;1.33;;
18510;SDS011;9384;48.044;11.616;2022-10-16T09:03:46;1.80;;;1.70;;
18510;SDS011;9384;48.044;11.616;2022-10-16T09:06:26;2.20;;;1.60;;
18510;SDS011;9384;48.044;11.616;2022-10-16T09:09:24;2.43;;;1.47;;
18510;SDS011;9384;48.044;11.616;2022-10-16T09:11:55;1.10;;;1.10;;
18510;SDS011;9384;48.044;11.616;2022-10-16T09:14:33;1.20;;;1.20;;
18510;SDS011;9384;48.044;11.616;2022-10-16T09:17:20;1.20;;;1.10;;
18510;SDS011;9384;48.044;11.616;2022-10-16T09:20:00;1.70;;;1.40;;
18510;SDS011;9384;48.044;11.616;2022-10-16T09:22:44;1.60;;;1.33;;
18510;SDS011;9384;48.044;11.616;2022-10-16T09:25:13;7.63;;;1.30;;
18510;SDS011;9384;48.044;11.616;2022-10-16T09:27:40;1.85;;;1.40;;
18510;SDS011;9384;48.044;11.616;2022-10-16T09:30:11;2.93;;;1.30;;
18510;SDS011;9384;48.044;11.616;2022-10-16T09:32:39;1.20;;;1.20;;
18510;SDS011;9384;48.044;11.616;2022-10-16T09:35:12;1.10;;;1.10;;
18510;SDS011;9384;48.044;11.616;2022-10-16T09:37:42;1.53;;;1.53;;
18510;SDS011;9384;48.044;11.616;2022-10-16T09:40:13;1.43;;;1.43;;
18510;SDS011;9384;48.044;11.616;2022-10-16T09:42:50;2.37;;;1.47;;
18510;SDS011;9384;48.044;11.616;2022-10-16T09:45:22;2.50;;;1.60;;
18510;SDS011;9384;48.044;11.616;2022-10-16T09:47:50;1.57;;;1.27;;
18510;SDS011;9384;48.044;11.616;2022-10-16T09:50:22;2.33;;;1.40;;
18510;SDS011;9384;48.044;11.616;2022-10-16T09:52:51;1.40;;;1.40;;
18510;SDS011;9384;48.044;11.616;2022-10-16T09:55:18;1.43;;;1.30;;
18510;SDS011;9384;48.044;11.616;2022-10-16T09:57:49;1.70;;;1.53;;
18510;SDS011;9384;48.044;11.616;2022-10-16T10:00:16;1.57;;;1.17;;
18510;SDS011;9384;48.044;11.616;2022-10-16T10:02:44;1.63;;;1.53;;
18510;SDS011;9384;48.044;11.616;2022-10-16T10:05:18;1.20;;;1.13;;
18510;SDS011;9384;48.044;11.616;2022-10-16T10:07:53;1.10;;;1.10;;
18510;SDS011;9384;48.044;11.616;2022-10-16T10:10:21;0.90;;;0.90;;
18510;SDS011;9384;48.044;11.616;2022-10-16T10:12:49;1.20;;;1.20;;
18510;SDS011;9384;48.044;11.616;2022-10-16T10:15:16;0.90;;;0.90;;
18510;SDS011;9384;48.044;11.616;2022-10-16T10:17:47;1.20;;;1.20;;
18510;SDS011;9384;48.044;11.616;2022-10-16T10:20:22;1.30;;;1.20;;
18510;SDS011;9384;48.044;11.616;2022-10-16T10:22:51;1.20;;;1.10;;
18510;SDS011;9384;48.044;11.616;2022-10-16T10:25:29;1.13;;;1.13;;
18510;SDS011;9384;48.044;11.616;2022-10-16T10:28:05;1.20;;;1.20;;
18510;SDS011;9384;48.044;11.616;2022-10-16T10:30:35;1.27;;;1.27;;
18510;SDS011;9384;48.044;11.616;2022-10-16T10:33:09;1.27;;;1.27;;
18510;SDS011;9384;48.044;11.616;2022-10-16T10:35:40;1.00;;;1.00;;
18510;SDS011;9384;48.044;11.616;2022-10-16T10:38:16;2.17;;;1.00;;
18510;SDS011;9384;48.044;11.616;2022-10-16T10:40:49;0.90;;;0.90;;
18510;SDS011;9384;48.044;11.616;2022-10-16T10:43:29;0.97;;;0.97;;
18510;SDS011;9384;48.044;11.616;2022-10-16T10:45:59;2.03;;;1.10;;
18510;SDS011;9384;48.044;11.616;2022-10-16T10:48:35;1.17;;;1.17;;
18510;SDS011;9384;48.044;11.616;2022-10-16T10:51:10;1.80;;;1.40;;
18510;SDS011;9384;48.044;11.616;2022-10-16T10:53:43;2.20;;;1.10;;
18510;SDS011;9384;48.044;11.616;2022-10-16T10:56:20;1.00;;;1.00;;
18510;SDS011;9384;48.044;11.616;2022-10-16T10:58:56;0.97;;;0.97;;
18510;SDS011;9384;48.044;11.616;2022-10-16T11:01:26;0.73;;;0.73;;
18510;SDS011;9384;48.044;11.616;2022-10-16T11:04:01;1.63;;;0.87;;
18510;SDS011;9384;48.044;11.616;2022-10-16T11:06:32;2.20;;;0.90;;
18510;SDS011;9384;48.044;11.616;2022-10-16T11:09:02;1.00;;;1.00;;
18510;SDS011;9384;48.044;11.616;2022-10-16T11:11:34;1.50;;;0.90;;
18510;SDS011;9384;48.044;11.616;2022-10-16T11:14:04;0.73;;;0.73;;
18510;SDS011;9384;48.044;11.616;2022-10-16T11:16:33;0.93;;;0.93;;
18510;SDS011;9384;48.044;11.616;2022-10-16T11:19:03;1.15;;;0.77;;
18510;SDS011;9384;48.044;11.616;2022-10-16T11:21:34;2.00;;;0.73;;
18510;SDS011;9384;48.044;11.616;2022-10-16T11:24:04;1.20;;;1.20;;
18510;SDS011;9384;48.044;11.616;2022-10-16T11:26:34;0.60;;;0.60;;
18510;SDS011;9384;48.044;11.616;2022-10-16T11:29:03;0.82;;;0.82;;
18510;SDS011;9384;48.044;11.616;2022-10-16T11:31:32;0.98;;;0.98;;
18510;SDS011;9384;48.044;11.616;2022-10-16T11:34:02;0.60;;;0.60;;
18510;SDS011;9384;48.044;11.616;2022-10-16T11:36:34;1.08;;;0.50;;
18510;SDS011;9384;48.044;11.616;2022-10-16T11:39:07;0.68;;;0.68;;
18510;SDS011;9384;48.044;11.616;2022-10-16T11:41:39;1.00;;;1.00;;
18510;SDS011;9384;48.044;11.616;2022-10-16T11:47:01;0.80;;;0.80;;
18510;SDS011;9384;48.044;11.616;2022-10-16T11:49:32;0.80;;;0.80;;
18510;SDS011;9384;48.044;11.616;2022-10-16T11:52:01;1.20;;;0.98;;
18510;SDS011;9384;48.044;11.616;2022-10-16T11:54:35;0.70;;;0.70;;
18510;SDS011;9384;48.044;11.616;2022-10-16T11:57:07;0.57;;;0.57;;
18510;SDS011;9384;48.044;11.616;2022-10-16T11:59:37;0.55;;;0.55;;
18510;SDS011;9384;48.044;11.616;2022-10-16T12:02:15;0.88;;;0.80;;
18510;SDS011;9384;48.044;11.616;2022-10-16T12:04:48;0.63;;;0.63;;
18510;SDS011;9384;48.044;11.616;2022-10-16T12:07:17;2.67;;;0.75;;
18510;SDS011;9384;48.044;11.616;2022-10-16T12:09:48;0.60;;;0.60;;
18510;SDS011;9384;48.044;11.616;2022-10-16T12:12:24;0.63;;;0.55;;
18510;SDS011;9384;48.044;11.616;2022-10-16T12:14:59;1.55;;;1.02;;
18510;SDS011;9384;48.044;11.616;2022-10-16T12:17:27;1.48;;;1.00;;
18510;SDS011;9384;48.044;11.616;2022-10-16T12:20:12;1.23;;;0.82;;
18510;SDS011;9384;48.044;11.616;2022-10-16T12:22:41;2.80;;;0.77;;
18510;SDS011;9384;48.044;11.616;2022-10-16T12:25:18;0.60;;;0.60;;
18510;SDS011;9384;48.044;11.616;2022-10-16T12:27:52;0.90;;;0.90;;
18510;SDS011;9384;48.044;11.616;2022-10-16T12:30:21;1.10;;;0.65;;
18510;SDS011;9384;48.044;11.616;2022-10-16T12:32:52;0.60;;;0.60;;
18510;SDS011;9384;48.044;11.616;2022-10-16T12:35:21;0.85;;;0.70;;
18510;SDS011;9384;48.044;11.616;2022-10-16T12:37:48;0.85;;;0.85;;
18510;SDS011;9384;48.044;11.616;2022-10-16T12:40:24;0.65;;;0.65;;
18510;SDS011;9384;48.044;11.616;2022-10-16T12:42:52;1.42;;;1.02;;
18510;SDS011;9384;48.044;11.616;2022-10-16T12:45:24;0.75;;;0.75;;
18510;SDS011;9384;48.044;11.616;2022-10-16T12:47:52;0.93;;;0.93;;
18510;SDS011;9384;48.044;11.616;2022-10-16T12:50:24;2.05;;;0.77;;
18510;SDS011;9384;48.044;11.616;2022-10-16T12:52:52;1.38;;;0.75;;
18510;SDS011;9384;48.044;11.616;2022-10-16T12:55:19;0.57;;;0.57;;
18510;SDS011;9384;48.044;11.616;2022-10-16T12:57:52;0.70;;;0.70;;
18510;SDS011;9384;48.044;11.616;2022-10-16T13:00:24;0.70;;;0.70;;
18510;SDS011;9384;48.044;11.616;2022-10-16T13:02:56;0.80;;;0.80;;
18510;SDS011;9384;48.044;11.616;2022-10-16T13:05:29;0.70;;;0.70;;
18510;SDS011;9384;48.044;11.616;2022-10-16T13:08:02;0.88;;;0.88;;
18510;SDS011;9384;48.044;11.616;2022-10-16T13:10:32;0.82;;;0.82;;
18510;SDS011;9384;48.044;11.616;2022-10-16T13:13:09;1.50;;;0.77;;
18510;SDS011;9384;48.044;11.616;2022-10-16T13:15:41;0.50;;;0.50;;
18510;SDS011;9384;48.044;11.616;2022-10-16T13:18:14;0.70;;;0.70;;
18510;SDS011;9384;48.044;11.616;2022-10-16T13:20:53;0.63;;;0.63;;
18510;SDS011;9384;48.044;11.616;2022-10-16T13:23:23;0.60;;;0.60;;
18510;SDS011;9384;48.044;11.616;2022-10-16T13:25:56;0.65;;;0.65;;
18510;SDS011;9384;48.044;11.616;2022-10-16T13:28:29;1.67;;;0.77;;
18510;SDS011;9384;48.044;11.616;2022-10-16T13:30:59;1.48;;;0.60;;
18510;SDS011;9384;48.044;11.616;2022-10-16T13:33:28;0.63;;;0.63;;
18510;SDS011;9384;48.044;11.616;2022-10-16T13:35:58;0.70;;;0.70;;
18510;SDS011;9384;48.044;11.616;2022-10-16T13:38:26;0.98;;;0.90;;
18510;SDS011;9384;48.044;11.616;2022-10-16T13:40:54;1.55;;;0.80;;
18510;SDS011;9384;48.044;11.616;2022-10-16T13:46:23;0.68;;;0.68;;
18510;SDS011;9384;48.044;11.616;2022-10-16T13:48:57;0.52;;;0.52;;
18510;SDS011;9384;48.044;11.616;2022-10-16T13:51:25;0.50;;;0.50;;
18510;SDS011;9384;48.044;11.616;2022-10-16T13:53:52;0.95;;;0.77;;
18510;SDS011;9384;48.044;11.616;2022-10-16T13:56:21;0.70;;;0.70;;
18510;SDS011;9384;48.044;11.616;2022-10-16T13:58:57;0.60;;;0.60;;
18510;SDS011;9384;48.044;11.616;2022-10-16T14:01:35;0.40;;;0.40;;
18510;SDS011;9384;48.044;11.616;2022-10-16T14:04:07;0.50;;;0.50;;
18510;SDS011;9384;48.044;11.616;2022-10-16T14:06:35;0.73;;;0.70;;
18510;SDS011;9384;48.044;11.616;2022-10-16T14:09:04;1.10;;;0.68;;
18510;SDS011;9384;48.044;11.616;2022-10-16T14:11:32;0.52;;;0.52;;
18510;SDS011;9384;48.044;11.616;2022-10-16T14:14:00;2.22;;;0.60;;
18510;SDS011;9384;48.044;11.616;2022-10-16T14:16:29;0.68;;;0.68;;
18510;SDS011;9384;48.044;11.616;2022-10-16T14:18:59;1.30;;;0.90;;
18510;SDS011;9384;48.044;11.616;2022-10-16T14:21:26;0.82;;;0.50;;
18510;SDS011;9384;48.044;11.616;2022-10-16T14:23:54;0.70;;;0.70;;
18510;SDS011;9384;48.044;11.616;2022-10-16T14:26:22;2.60;;;0.90;;
18510;SDS011;9384;48.044;11.616;2022-10-16T14:31:34;0.60;;;0.60;;
18510;SDS011;9384;48.044;11.616;2022-10-16T14:34:03;0.82;;;0.80;;
18510;SDS011;9384;48.044;11.616;2022-10-16T14:36:31;1.13;;;1.02;;
18510;SDS011;9384;48.044;11.616;2022-10-16T14:39:02;0.85;;;0.80;;
18510;SDS011;9384;48.044;11.616;2022-10-16T14:41:30;0.90;;;0.90;;
18510;SDS011;9384;48.044;11.616;2022-10-16T14:44:00;0.68;;;0.68;;
18510;SDS011;9384;48.044;11.616;2022-10-16T14:46:29;0.70;;;0.70;;
18510;SDS011;9384;48.044;11.616;2022-10-16T14:48:58;1.27;;;0.75;;
18510;SDS011;9384;48.044;11.616;2022-10-16T14:51:28;0.80;;;0.80;;
18510;SDS011;9384;48.044;11.616;2022-10-16T14:53:55;0.80;;;0.70;;
18510;SDS011;9384;48.044;11.616;2022-10-16T14:56:23;5.38;;;1.10;;
18510;SDS011;9384;48.044;11.616;2022-10-16T14:58:51;3.03;;;0.98;;
18510;SDS011;9384;48.044;11.616;2022-10-16T15:01:19;0.73;;;0.73;;
18510;SDS011;9384;48.044;11.616;2022-10-16T15:03:47;1.10;;;0.80;;
18510;SDS011;9384;48.044;11.616;2022-10-16T15:06:15;1.75;;;0.65;;
18510;SDS011;9384;48.044;11.616;2022-10-16T15:08:43;2.33;;;0.90;;
18510;SDS011;9384;48.044;11.616;2022-10-16T15:11:11;1.98;;;0.82;;
18510;SDS011;9384;48.044;11.616;2022-10-16T15:13:39;1.05;;;1.05;;